sensor_id;sensor_type;location;lat;lon;timestamp;P1;durP1;ratioP1;P2;durP2;ratioP2
60675;SDS011;46716;38.014;-7.874;2022-10-16T00:01:20;2.03;;;1.08;;
60675;SDS011;46716;38.014;-7.874;2022-10-16T00:03:25;5.72;;;1.30;;
60675;SDS011;46716;38.014;-7.874;2022-10-16T00:05:29;2.60;;;1.10;;
60675;SDS011;46716;38.014;-7.874;2022-10-16T00:07:30;2.67;;;1.10;;
60675;SDS011;46716;38.014;-7.874;2022-10-16T00:09:32;3.03;;;1.60;;
60675;SDS011;46716;38.014;-7.874;2022-10-16T00:11:35;5.97;;;2.80;;
60675;SDS011;46716;38.014;-7.874;2022-10-16T00:13:43;3.42;;;1.92;;
60675;SDS011;46716;38.014;-7.874;2022-10-16T00:15:45;5.57;;;2.13;;
60675;SDS011;46716;38.014;-7.874;2022-10-16T00:17:48;4.07;;;1.90;;
60675;SDS011;46716;38.014;-7.874;2022-10-16T00:19:48;7.03;;;2.05;;
60675;SDS011;46716;38.014;-7.874;2022-10-16T00:21:50;5.20;;;2.10;;
60675;SDS011;46716;38.014;-7.874;2022-10-16T00:23:55;6.22;;;2.00;;
60675;SDS011;46716;38.014;-7.874;2022-10-16T00:26:03;4.30;;;2.00;;
60675;SDS011;46716;38.014;-7.874;2022-10-16T00:28:07;3.90;;;2.28;;
60675;SDS011;46716;38.014;-7.874;2022-10-16T00:30:09;5.20;;;1.92;;
60675;SDS011;46716;38.014;-7.874;2022-10-16T00:32:14;21.80;;;2.03;;
60675;SDS011;46716;38.014;-7.874;2022-10-16T00:34:15;2.78;;;1.40;;
60675;SDS011;46716;38.014;-7.874;2022-10-16T00:38:21;7.53;;;1.40;;
60675;SDS011;46716;38.014;-7.874;2022-10-16T00:40:26;5.03;;;1.30;;
60675;SDS011;46716;38.014;-7.874;2022-10-16T00:42:34;1.77;;;0.90;;
60675;SDS011;46716;38.014;-7.874;2022-10-16T00:44:52;1.83;;;0.93;;
60675;SDS011;46716;38.014;-7.874;2022-10-16T00:46:58;2.42;;;1.17;;
60675;SDS011;46716;38.014;-7.874;2022-10-16T00:49:01;2.85;;;1.40;;
60675;SDS011;46716;38.014;-7.874;2022-10-16T00:51:23;2.15;;;1.15;;
60675;SDS011;46716;38.014;-7.874;2022-10-16T00:53:49;1.30;;;0.90;;
60675;SDS011;46716;38.014;-7.874;2022-10-16T00:55:51;3.22;;;1.25;;
60675;SDS011;46716;38.014;-7.874;2022-10-16T00:57:52;5.97;;;2.85;;
60675;SDS011;46716;38.014;-7.874;2022-10-16T00:59:58;6.75;;;3.25;;
60675;SDS011;46716;38.014;-7.874;2022-10-16T01:02:01;11.30;;;3.85;;
60675;SDS011;46716;38.014;-7.874;2022-10-16T01:04:04;7.30;;;3.83;;
60675;SDS011;46716;38.014;-7.874;2022-10-16T01:06:09;8.30;;;3.00;;
60675;SDS011;46716;38.014;-7.874;2022-10-16T01:09:00;7.03;;;2.95;;
60675;SDS011;46716;38.014;-7.874;2022-10-16T01:11:01;6.00;;;2.80;;
60675;SDS011;46716;38.014;-7.874;2022-10-16T01:13:21;11.38;;;3.60;;
60675;SDS011;46716;38.014;-7.874;2022-10-16T01:15:34;8.48;;;3.40;;
60675;SDS011;46716;38.014;-7.874;2022-10-16T01:25:09;5.95;;;1.45;;
60675;SDS011;46716;38.014;-7.874;2022-10-16T01:27:21;3.50;;;1.35;;
60675;SDS011;46716;38.014;-7.874;2022-10-16T01:31:59;6.10;;;1.60;;
60675;SDS011;46716;38.014;-7.874;2022-10-16T01:34:11;2.17;;;1.00;;
60675;SDS011;46716;38.014;-7.874;2022-10-16T01:36:21;2.50;;;1.10;;
60675;SDS011;46716;38.014;-7.874;2022-10-16T01:38:49;3.85;;;1.48;;
60675;SDS011;46716;38.014;-7.874;2022-10-16T01:41:00;5.03;;;1.40;;
60675;SDS011;46716;38.014;-7.874;2022-10-16T01:43:08;3.28;;;1.65;;
60675;SDS011;46716;38.014;-7.874;2022-10-16T01:45:23;2.60;;;1.20;;
60675;SDS011;46716;38.014;-7.874;2022-10-16T01:47:24;4.35;;;1.65;;
60675;SDS011;46716;38.014;-7.874;2022-10-16T01:49:28;3.13;;;1.48;;
60675;SDS011;46716;38.014;-7.874;2022-10-16T01:51:32;2.67;;;1.42;;
60675;SDS011;46716;38.014;-7.874;2022-10-16T01:55:38;2.75;;;1.23;;
60675;SDS011;46716;38.014;-7.874;2022-10-16T01:57:45;6.13;;;1.50;;
60675;SDS011;46716;38.014;-7.874;2022-10-16T01:59:54;4.70;;;1.77;;
60675;SDS011;46716;38.014;-7.874;2022-10-16T02:01:59;7.07;;;1.95;;
60675;SDS011;46716;38.014;-7.874;2022-10-16T02:04:17;2.38;;;1.30;;
60675;SDS011;46716;38.014;-7.874;2022-10-16T02:06:23;3.78;;;1.77;;
60675;SDS011;46716;38.014;-7.874;2022-10-16T02:08:27;3.80;;;1.70;;
60675;SDS011;46716;38.014;-7.874;2022-10-16T02:10:30;2.88;;;1.60;;
60675;SDS011;46716;38.014;-7.874;2022-10-16T02:12:32;2.95;;;1.30;;
60675;SDS011;46716;38.014;-7.874;2022-10-16T02:14:37;2.05;;;1.00;;
60675;SDS011;46716;38.014;-7.874;2022-10-16T02:16:40;3.28;;;1.17;;
60675;SDS011;46716;38.014;-7.874;2022-10-16T02:18:48;2.55;;;1.30;;
60675;SDS011;46716;38.014;-7.874;2022-10-16T02:23:22;2.03;;;1.20;;
60675;SDS011;46716;38.014;-7.874;2022-10-16T02:25:37;2.72;;;1.33;;
60675;SDS011;46716;38.014;-7.874;2022-10-16T02:27:49;2.38;;;1.30;;
60675;SDS011;46716;38.014;-7.874;2022-10-16T02:32:48;3.63;;;1.33;;
60675;SDS011;46716;38.014;-7.874;2022-10-16T02:34:55;3.15;;;1.50;;
60675;SDS011;46716;38.014;-7.874;2022-10-16T02:37:01;2.88;;;1.33;;
60675;SDS011;46716;38.014;-7.874;2022-10-16T02:39:04;3.83;;;1.55;;
60675;SDS011;46716;38.014;-7.874;2022-10-16T02:41:06;2.95;;;1.58;;
60675;SDS011;46716;38.014;-7.874;2022-10-16T02:43:09;6.03;;;1.48;;
60675;SDS011;46716;38.014;-7.874;2022-10-16T02:45:13;4.32;;;1.40;;
60675;SDS011;46716;38.014;-7.874;2022-10-16T02:47:15;2.80;;;1.23;;
60675;SDS011;46716;38.014;-7.874;2022-10-16T02:49:21;2.83;;;1.50;;
60675;SDS011;46716;38.014;-7.874;2022-10-16T02:51:23;3.70;;;1.58;;
60675;SDS011;46716;38.014;-7.874;2022-10-16T02:53:27;2.25;;;1.30;;
60675;SDS011;46716;38.014;-7.874;2022-10-16T02:55:29;4.43;;;1.42;;
60675;SDS011;46716;38.014;-7.874;2022-10-16T02:57:31;2.50;;;1.45;;
60675;SDS011;46716;38.014;-7.874;2022-10-16T02:59:36;2.75;;;1.30;;
60675;SDS011;46716;38.014;-7.874;2022-10-16T03:01:37;3.15;;;1.23;;
60675;SDS011;46716;38.014;-7.874;2022-10-16T03:03:38;3.05;;;1.25;;
60675;SDS011;46716;38.014;-7.874;2022-10-16T03:05:39;2.90;;;1.50;;
60675;SDS011;46716;38.014;-7.874;2022-10-16T03:07:41;3.10;;;1.30;;
60675;SDS011;46716;38.014;-7.874;2022-10-16T03:09:44;2.00;;;1.00;;
60675;SDS011;46716;38.014;-7.874;2022-10-16T03:11:46;2.78;;;1.40;;
60675;SDS011;46716;38.014;-7.874;2022-10-16T03:13:50;8.63;;;1.45;;
60675;SDS011;46716;38.014;-7.874;2022-10-16T03:17:58;1.92;;;1.20;;
60675;SDS011;46716;38.014;-7.874;2022-10-16T03:20:04;3.85;;;1.60;;
60675;SDS011;46716;38.014;-7.874;2022-10-16T03:22:09;4.07;;;1.65;;
60675;SDS011;46716;38.014;-7.874;2022-10-16T03:24:18;3.08;;;1.38;;
60675;SDS011;46716;38.014;-7.874;2022-10-16T03:26:24;4.82;;;1.70;;
60675;SDS011;46716;38.014;-7.874;2022-10-16T03:28:32;6.75;;;1.73;;
60675;SDS011;46716;38.014;-7.874;2022-10-16T03:30:38;6.97;;;3.17;;
60675;SDS011;46716;38.014;-7.874;2022-10-16T03:32:44;6.20;;;3.03;;
60675;SDS011;46716;38.014;-7.874;2022-10-16T03:34:49;5.93;;;2.67;;
60675;SDS011;46716;38.014;-7.874;2022-10-16T03:36:53;6.95;;;2.55;;
60675;SDS011;46716;38.014;-7.874;2022-10-16T03:38:56;6.63;;;3.03;;
60675;SDS011;46716;38.014;-7.874;2022-10-16T03:41:01;7.03;;;3.05;;
60675;SDS011;46716;38.014;-7.874;2022-10-16T03:43:09;5.72;;;2.72;;
60675;SDS011;46716;38.014;-7.874;2022-10-16T03:45:11;7.47;;;3.10;;
60675;SDS011;46716;38.014;-7.874;2022-10-16T03:47:15;7.53;;;3.15;;
60675;SDS011;46716;38.014;-7.874;2022-10-16T03:49:20;7.68;;;2.97;;
60675;SDS011;46716;38.014;-7.874;2022-10-16T03:51:21;6.85;;;2.85;;
60675;SDS011;46716;38.014;-7.874;2022-10-16T03:53:22;5.00;;;2.00;;
60675;SDS011;46716;38.014;-7.874;2022-10-16T03:55:23;6.70;;;2.72;;
60675;SDS011;46716;38.014;-7.874;2022-10-16T03:57:24;6.82;;;2.50;;
60675;SDS011;46716;38.014;-7.874;2022-10-16T03:59:26;6.43;;;2.35;;
60675;SDS011;46716;38.014;-7.874;2022-10-16T04:01:26;7.22;;;2.78;;
60675;SDS011;46716;38.014;-7.874;2022-10-16T04:03:27;4.53;;;1.73;;
60675;SDS011;46716;38.014;-7.874;2022-10-16T04:05:28;7.03;;;2.90;;
60675;SDS011;46716;38.014;-7.874;2022-10-16T04:07:29;7.25;;;2.65;;
60675;SDS011;46716;38.014;-7.874;2022-10-16T04:09:31;5.22;;;2.50;;
60675;SDS011;46716;38.014;-7.874;2022-10-16T04:11:32;4.93;;;2.20;;
60675;SDS011;46716;38.014;-7.874;2022-10-16T04:13:33;5.82;;;2.22;;
60675;SDS011;46716;38.014;-7.874;2022-10-16T04:15:34;4.75;;;2.10;;
60675;SDS011;46716;38.014;-7.874;2022-10-16T04:17:35;5.30;;;2.17;;
60675;SDS011;46716;38.014;-7.874;2022-10-16T04:19:41;5.80;;;2.38;;
60675;SDS011;46716;38.014;-7.874;2022-10-16T04:21:42;6.15;;;2.50;;
60675;SDS011;46716;38.014;-7.874;2022-10-16T04:23:44;4.85;;;2.22;;
60675;SDS011;46716;38.014;-7.874;2022-10-16T04:25:45;9.65;;;2.90;;
60675;SDS011;46716;38.014;-7.874;2022-10-16T04:27:46;8.43;;;2.60;;
60675;SDS011;46716;38.014;-7.874;2022-10-16T04:29:47;6.03;;;2.03;;
60675;SDS011;46716;38.014;-7.874;2022-10-16T04:31:48;3.58;;;1.90;;
60675;SDS011;46716;38.014;-7.874;2022-10-16T04:33:49;4.43;;;2.00;;
60675;SDS011;46716;38.014;-7.874;2022-10-16T04:35:56;4.50;;;1.90;;
60675;SDS011;46716;38.014;-7.874;2022-10-16T04:37:58;4.82;;;1.75;;
60675;SDS011;46716;38.014;-7.874;2022-10-16T04:40:00;5.47;;;1.67;;
60675;SDS011;46716;38.014;-7.874;2022-10-16T04:42:01;3.33;;;1.45;;
60675;SDS011;46716;38.014;-7.874;2022-10-16T04:44:05;2.97;;;1.33;;
60675;SDS011;46716;38.014;-7.874;2022-10-16T04:46:06;4.68;;;1.55;;
60675;SDS011;46716;38.014;-7.874;2022-10-16T04:48:07;2.92;;;1.30;;
60675;SDS011;46716;38.014;-7.874;2022-10-16T04:50:08;2.42;;;1.20;;
60675;SDS011;46716;38.014;-7.874;2022-10-16T04:52:09;7.47;;;1.45;;
60675;SDS011;46716;38.014;-7.874;2022-10-16T04:54:10;3.58;;;1.60;;
60675;SDS011;46716;38.014;-7.874;2022-10-16T04:56:11;3.72;;;1.70;;
60675;SDS011;46716;38.014;-7.874;2022-10-16T04:58:12;4.93;;;1.80;;
60675;SDS011;46716;38.014;-7.874;2022-10-16T05:00:13;5.72;;;2.25;;
60675;SDS011;46716;38.014;-7.874;2022-10-16T05:02:19;6.03;;;2.05;;
60675;SDS011;46716;38.014;-7.874;2022-10-16T05:04:20;3.50;;;1.75;;
60675;SDS011;46716;38.014;-7.874;2022-10-16T05:06:21;4.45;;;1.70;;
60675;SDS011;46716;38.014;-7.874;2022-10-16T05:08:22;3.00;;;1.40;;
60675;SDS011;46716;38.014;-7.874;2022-10-16T05:10:29;6.30;;;1.60;;
60675;SDS011;46716;38.014;-7.874;2022-10-16T05:12:30;3.80;;;1.60;;
60675;SDS011;46716;38.014;-7.874;2022-10-16T05:14:33;4.68;;;1.65;;
60675;SDS011;46716;38.014;-7.874;2022-10-16T05:16:35;4.65;;;1.80;;
60675;SDS011;46716;38.014;-7.874;2022-10-16T05:18:37;4.60;;;1.50;;
60675;SDS011;46716;38.014;-7.874;2022-10-16T05:20:37;4.40;;;1.48;;
60675;SDS011;46716;38.014;-7.874;2022-10-16T05:22:38;4.70;;;1.73;;
60675;SDS011;46716;38.014;-7.874;2022-10-16T05:24:39;4.30;;;1.58;;
60675;SDS011;46716;38.014;-7.874;2022-10-16T05:26:40;4.78;;;2.03;;
60675;SDS011;46716;38.014;-7.874;2022-10-16T05:28:41;2.95;;;1.52;;
60675;SDS011;46716;38.014;-7.874;2022-10-16T05:30:42;2.83;;;1.67;;
60675;SDS011;46716;38.014;-7.874;2022-10-16T05:32:50;4.32;;;1.65;;
60675;SDS011;46716;38.014;-7.874;2022-10-16T05:34:51;3.55;;;1.67;;
60675;SDS011;46716;38.014;-7.874;2022-10-16T05:36:52;4.43;;;1.63;;
60675;SDS011;46716;38.014;-7.874;2022-10-16T05:38:56;2.92;;;1.58;;
60675;SDS011;46716;38.014;-7.874;2022-10-16T05:40:57;3.60;;;1.38;;
60675;SDS011;46716;38.014;-7.874;2022-10-16T05:42:58;4.15;;;2.20;;
60675;SDS011;46716;38.014;-7.874;2022-10-16T05:44:59;3.65;;;1.70;;
60675;SDS011;46716;38.014;-7.874;2022-10-16T05:47:01;5.95;;;1.92;;
60675;SDS011;46716;38.014;-7.874;2022-10-16T05:49:02;3.25;;;1.60;;
60675;SDS011;46716;38.014;-7.874;2022-10-16T05:51:04;3.78;;;1.52;;
60675;SDS011;46716;38.014;-7.874;2022-10-16T05:53:07;4.05;;;1.58;;
60675;SDS011;46716;38.014;-7.874;2022-10-16T05:55:09;4.70;;;1.67;;
60675;SDS011;46716;38.014;-7.874;2022-10-16T05:57:10;4.22;;;1.70;;
60675;SDS011;46716;38.014;-7.874;2022-10-16T05:59:11;3.92;;;1.70;;
60675;SDS011;46716;38.014;-7.874;2022-10-16T06:01:13;6.15;;;2.35;;
60675;SDS011;46716;38.014;-7.874;2022-10-16T06:03:16;4.07;;;1.88;;
60675;SDS011;46716;38.014;-7.874;2022-10-16T06:05:32;4.72;;;1.90;;
60675;SDS011;46716;38.014;-7.874;2022-10-16T06:08:32;5.78;;;2.25;;
60675;SDS011;46716;38.014;-7.874;2022-10-16T06:10:33;4.80;;;2.22;;
60675;SDS011;46716;38.014;-7.874;2022-10-16T06:12:59;7.15;;;2.00;;
60675;SDS011;46716;38.014;-7.874;2022-10-16T06:15:00;5.00;;;2.22;;
60675;SDS011;46716;38.014;-7.874;2022-10-16T06:17:01;59.22;;;6.28;;
60675;SDS011;46716;38.014;-7.874;2022-10-16T06:19:03;5.45;;;1.70;;
60675;SDS011;46716;38.014;-7.874;2022-10-16T06:21:08;5.40;;;1.88;;
60675;SDS011;46716;38.014;-7.874;2022-10-16T06:23:10;4.28;;;1.92;;
60675;SDS011;46716;38.014;-7.874;2022-10-16T06:25:11;6.75;;;1.90;;
60675;SDS011;46716;38.014;-7.874;2022-10-16T06:27:12;5.07;;;1.83;;
60675;SDS011;46716;38.014;-7.874;2022-10-16T06:29:13;7.32;;;2.10;;
60675;SDS011;46716;38.014;-7.874;2022-10-16T06:31:15;4.68;;;1.92;;
60675;SDS011;46716;38.014;-7.874;2022-10-16T06:33:16;5.30;;;2.40;;
60675;SDS011;46716;38.014;-7.874;2022-10-16T06:35:17;5.72;;;2.28;;
60675;SDS011;46716;38.014;-7.874;2022-10-16T06:37:19;8.33;;;2.70;;
60675;SDS011;46716;38.014;-7.874;2022-10-16T06:39:27;7.55;;;2.83;;
60675;SDS011;46716;38.014;-7.874;2022-10-16T06:41:31;9.00;;;3.45;;
60675;SDS011;46716;38.014;-7.874;2022-10-16T06:43:37;9.73;;;3.58;;
60675;SDS011;46716;38.014;-7.874;2022-10-16T06:45:37;9.45;;;3.40;;
60675;SDS011;46716;38.014;-7.874;2022-10-16T06:47:38;11.63;;;4.47;;
60675;SDS011;46716;38.014;-7.874;2022-10-16T06:49:44;9.73;;;3.58;;
60675;SDS011;46716;38.014;-7.874;2022-10-16T06:51:45;10.63;;;3.58;;
60675;SDS011;46716;38.014;-7.874;2022-10-16T06:53:47;8.57;;;3.88;;
60675;SDS011;46716;38.014;-7.874;2022-10-16T06:55:52;8.48;;;3.30;;
60675;SDS011;46716;38.014;-7.874;2022-10-16T06:57:53;8.65;;;3.25;;
60675;SDS011;46716;38.014;-7.874;2022-10-16T06:59:54;7.30;;;2.78;;
60675;SDS011;46716;38.014;-7.874;2022-10-16T07:01:55;7.70;;;2.60;;
60675;SDS011;46716;38.014;-7.874;2022-10-16T07:03:56;7.68;;;2.80;;
60675;SDS011;46716;38.014;-7.874;2022-10-16T07:06:01;5.68;;;2.58;;
60675;SDS011;46716;38.014;-7.874;2022-10-16T07:08:09;6.90;;;2.63;;
60675;SDS011;46716;38.014;-7.874;2022-10-16T07:10:13;7.25;;;2.42;;
60675;SDS011;46716;38.014;-7.874;2022-10-16T07:14:29;6.30;;;2.60;;
60675;SDS011;46716;38.014;-7.874;2022-10-16T07:17:05;5.75;;;2.22;;
60675;SDS011;46716;38.014;-7.874;2022-10-16T07:19:08;11.10;;;2.17;;
60675;SDS011;46716;38.014;-7.874;2022-10-16T07:21:14;6.65;;;1.98;;
60675;SDS011;46716;38.014;-7.874;2022-10-16T07:23:21;5.68;;;2.42;;
60675;SDS011;46716;38.014;-7.874;2022-10-16T07:25:22;6.28;;;2.53;;
60675;SDS011;46716;38.014;-7.874;2022-10-16T07:27:27;7.38;;;2.58;;
60675;SDS011;46716;38.014;-7.874;2022-10-16T07:29:31;5.85;;;2.35;;
60675;SDS011;46716;38.014;-7.874;2022-10-16T07:31:32;9.63;;;2.65;;
60675;SDS011;46716;38.014;-7.874;2022-10-16T07:33:35;6.53;;;2.63;;
60675;SDS011;46716;38.014;-7.874;2022-10-16T07:35:37;6.13;;;2.60;;
60675;SDS011;46716;38.014;-7.874;2022-10-16T07:37:38;5.85;;;2.42;;
60675;SDS011;46716;38.014;-7.874;2022-10-16T07:39:42;7.80;;;2.97;;
60675;SDS011;46716;38.014;-7.874;2022-10-16T07:41:44;9.50;;;3.17;;
60675;SDS011;46716;38.014;-7.874;2022-10-16T07:44:03;9.13;;;3.35;;
60675;SDS011;46716;38.014;-7.874;2022-10-16T07:46:05;12.93;;;4.32;;
60675;SDS011;46716;38.014;-7.874;2022-10-16T07:48:06;17.55;;;5.40;;
60675;SDS011;46716;38.014;-7.874;2022-10-16T07:50:07;12.48;;;4.70;;
60675;SDS011;46716;38.014;-7.874;2022-10-16T07:52:08;11.30;;;4.57;;
60675;SDS011;46716;38.014;-7.874;2022-10-16T07:54:09;12.18;;;4.47;;
60675;SDS011;46716;38.014;-7.874;2022-10-16T07:58:15;13.05;;;3.83;;
60675;SDS011;46716;38.014;-7.874;2022-10-16T08:00:16;14.68;;;3.85;;
60675;SDS011;46716;38.014;-7.874;2022-10-16T08:02:18;12.68;;;3.88;;
60675;SDS011;46716;38.014;-7.874;2022-10-16T08:04:19;11.25;;;3.95;;
60675;SDS011;46716;38.014;-7.874;2022-10-16T08:06:28;10.23;;;3.80;;
60675;SDS011;46716;38.014;-7.874;2022-10-16T08:08:36;8.32;;;3.55;;
60675;SDS011;46716;38.014;-7.874;2022-10-16T08:10:43;11.40;;;3.70;;
60675;SDS011;46716;38.014;-7.874;2022-10-16T08:12:44;7.30;;;3.58;;
60675;SDS011;46716;38.014;-7.874;2022-10-16T08:14:45;10.13;;;4.13;;
60675;SDS011;46716;38.014;-7.874;2022-10-16T08:16:46;10.75;;;3.85;;
60675;SDS011;46716;38.014;-7.874;2022-10-16T08:18:47;11.15;;;4.22;;
60675;SDS011;46716;38.014;-7.874;2022-10-16T08:20:54;11.63;;;3.63;;
60675;SDS011;46716;38.014;-7.874;2022-10-16T08:22:59;9.40;;;3.97;;
60675;SDS011;46716;38.014;-7.874;2022-10-16T08:25:06;14.88;;;3.67;;
60675;SDS011;46716;38.014;-7.874;2022-10-16T08:27:11;11.10;;;4.00;;
60675;SDS011;46716;38.014;-7.874;2022-10-16T08:29:13;11.63;;;4.47;;
60675;SDS011;46716;38.014;-7.874;2022-10-16T08:31:16;10.80;;;4.15;;
60675;SDS011;46716;38.014;-7.874;2022-10-16T08:33:16;11.07;;;4.50;;
60675;SDS011;46716;38.014;-7.874;2022-10-16T08:35:18;10.23;;;4.30;;
60675;SDS011;46716;38.014;-7.874;2022-10-16T08:37:19;11.00;;;4.00;;
60675;SDS011;46716;38.014;-7.874;2022-10-16T08:39:20;10.07;;;3.50;;
60675;SDS011;46716;38.014;-7.874;2022-10-16T08:41:31;9.75;;;3.95;;
60675;SDS011;46716;38.014;-7.874;2022-10-16T08:46:31;9.25;;;3.67;;
60675;SDS011;46716;38.014;-7.874;2022-10-16T08:48:43;8.98;;;3.90;;
60675;SDS011;46716;38.014;-7.874;2022-10-16T08:50:53;8.88;;;3.70;;
60675;SDS011;46716;38.014;-7.874;2022-10-16T08:52:55;10.57;;;4.00;;
60675;SDS011;46716;38.014;-7.874;2022-10-16T08:54:58;9.32;;;4.53;;
60675;SDS011;46716;38.014;-7.874;2022-10-16T08:57:01;9.27;;;4.10;;
60675;SDS011;46716;38.014;-7.874;2022-10-16T08:59:14;10.52;;;4.10;;
60675;SDS011;46716;38.014;-7.874;2022-10-16T09:01:22;7.15;;;3.40;;
60675;SDS011;46716;38.014;-7.874;2022-10-16T09:16:49;7.80;;;3.28;;
60675;SDS011;46716;38.014;-7.874;2022-10-16T09:21:29;5.97;;;2.88;;
60675;SDS011;46716;38.014;-7.874;2022-10-16T09:23:33;8.90;;;3.80;;
60675;SDS011;46716;38.014;-7.874;2022-10-16T09:25:35;5.60;;;2.45;;
60675;SDS011;46716;38.014;-7.874;2022-10-16T09:27:39;6.53;;;2.83;;
60675;SDS011;46716;38.014;-7.874;2022-10-16T09:29:41;5.40;;;2.67;;
60675;SDS011;46716;38.014;-7.874;2022-10-16T09:31:42;5.18;;;2.10;;
60675;SDS011;46716;38.014;-7.874;2022-10-16T09:33:43;4.78;;;2.38;;
60675;SDS011;46716;38.014;-7.874;2022-10-16T09:35:48;6.00;;;2.13;;
60675;SDS011;46716;38.014;-7.874;2022-10-16T09:37:51;4.20;;;1.75;;
60675;SDS011;46716;38.014;-7.874;2022-10-16T09:39:54;3.33;;;1.60;;
60675;SDS011;46716;38.014;-7.874;2022-10-16T09:41:55;4.53;;;1.92;;
60675;SDS011;46716;38.014;-7.874;2022-10-16T09:43:57;3.22;;;1.55;;
60675;SDS011;46716;38.014;-7.874;2022-10-16T09:46:02;4.50;;;2.03;;
60675;SDS011;46716;38.014;-7.874;2022-10-16T09:48:12;4.30;;;1.40;;
60675;SDS011;46716;38.014;-7.874;2022-10-16T09:50:26;4.22;;;1.30;;
60675;SDS011;46716;38.014;-7.874;2022-10-16T09:52:29;3.28;;;1.30;;
60675;SDS011;46716;38.014;-7.874;2022-10-16T09:54:30;3.55;;;1.48;;
60675;SDS011;46716;38.014;-7.874;2022-10-16T09:56:33;5.90;;;1.67;;
60675;SDS011;46716;38.014;-7.874;2022-10-16T09:58:42;6.10;;;1.50;;
60675;SDS011;46716;38.014;-7.874;2022-10-16T10:00:53;10.15;;;1.67;;
60675;SDS011;46716;38.014;-7.874;2022-10-16T10:02:55;3.67;;;1.38;;
60675;SDS011;46716;38.014;-7.874;2022-10-16T10:04:56;6.53;;;1.65;;
60675;SDS011;46716;38.014;-7.874;2022-10-16T10:06:57;2.65;;;1.38;;
60675;SDS011;46716;38.014;-7.874;2022-10-16T10:09:21;5.82;;;1.40;;
60675;SDS011;46716;38.014;-7.874;2022-10-16T10:11:38;5.90;;;1.42;;
60675;SDS011;46716;38.014;-7.874;2022-10-16T10:13:41;6.40;;;1.73;;
60675;SDS011;46716;38.014;-7.874;2022-10-16T10:15:43;4.18;;;1.63;;
60675;SDS011;46716;38.014;-7.874;2022-10-16T10:17:51;5.57;;;1.70;;
60675;SDS011;46716;38.014;-7.874;2022-10-16T10:19:55;7.43;;;1.30;;
60675;SDS011;46716;38.014;-7.874;2022-10-16T10:21:58;3.35;;;1.45;;
60675;SDS011;46716;38.014;-7.874;2022-10-16T10:23:59;3.20;;;1.35;;
60675;SDS011;46716;38.014;-7.874;2022-10-16T10:26:07;3.83;;;1.20;;
60675;SDS011;46716;38.014;-7.874;2022-10-16T10:28:28;2.35;;;1.08;;
60675;SDS011;46716;38.014;-7.874;2022-10-16T10:37:39;3.92;;;1.73;;
60675;SDS011;46716;38.014;-7.874;2022-10-16T10:40:04;3.85;;;1.40;;
60675;SDS011;46716;38.014;-7.874;2022-10-16T10:42:22;2.95;;;1.65;;
60675;SDS011;46716;38.014;-7.874;2022-10-16T10:47:35;3.10;;;1.40;;
60675;SDS011;46716;38.014;-7.874;2022-10-16T11:01:16;7.43;;;1.40;;
60675;SDS011;46716;38.014;-7.874;2022-10-16T11:06:20;4.32;;;1.77;;
60675;SDS011;46716;38.014;-7.874;2022-10-16T11:08:48;4.90;;;1.60;;
60675;SDS011;46716;38.014;-7.874;2022-10-16T11:16:02;3.22;;;1.42;;
60675;SDS011;46716;38.014;-7.874;2022-10-16T11:21:00;5.03;;;1.70;;
60675;SDS011;46716;38.014;-7.874;2022-10-16T11:25:45;9.40;;;1.70;;
60675;SDS011;46716;38.014;-7.874;2022-10-16T11:27:54;3.03;;;1.38;;
60675;SDS011;46716;38.014;-7.874;2022-10-16T11:30:04;5.88;;;1.80;;
60675;SDS011;46716;38.014;-7.874;2022-10-16T11:32:19;4.15;;;1.63;;
60675;SDS011;46716;38.014;-7.874;2022-10-16T11:34:26;3.60;;;1.77;;
60675;SDS011;46716;38.014;-7.874;2022-10-16T11:41:27;3.88;;;1.63;;
60675;SDS011;46716;38.014;-7.874;2022-10-16T11:46:15;5.38;;;1.70;;
60675;SDS011;46716;38.014;-7.874;2022-10-16T11:48:33;4.63;;;1.75;;
60675;SDS011;46716;38.014;-7.874;2022-10-16T11:50:43;3.55;;;1.80;;
60675;SDS011;46716;38.014;-7.874;2022-10-16T11:53:13;11.35;;;2.25;;
60675;SDS011;46716;38.014;-7.874;2022-10-16T11:55:36;5.75;;;1.90;;
60675;SDS011;46716;38.014;-7.874;2022-10-16T11:57:42;4.03;;;1.95;;
60675;SDS011;46716;38.014;-7.874;2022-10-16T12:02:25;8.35;;;1.55;;
60675;SDS011;46716;38.014;-7.874;2022-10-16T12:43:58;5.88;;;1.85;;
60675;SDS011;46716;38.014;-7.874;2022-10-16T12:46:02;8.13;;;2.80;;
60675;SDS011;46716;38.014;-7.874;2022-10-16T12:48:20;8.73;;;2.33;;
60675;SDS011;46716;38.014;-7.874;2022-10-16T12:50:23;10.30;;;2.53;;
60675;SDS011;46716;38.014;-7.874;2022-10-16T12:54:37;4.95;;;2.00;;
60675;SDS011;46716;38.014;-7.874;2022-10-16T13:04:14;11.25;;;2.50;;
60675;SDS011;46716;38.014;-7.874;2022-10-16T13:10:40;4.50;;;1.80;;
60675;SDS011;46716;38.014;-7.874;2022-10-16T13:18:02;3.97;;;2.10;;
60675;SDS011;46716;38.014;-7.874;2022-10-16T13:20:34;6.65;;;2.28;;
60675;SDS011;46716;38.014;-7.874;2022-10-16T13:22:59;5.57;;;2.38;;
60675;SDS011;46716;38.014;-7.874;2022-10-16T13:25:16;4.05;;;2.17;;
60675;SDS011;46716;38.014;-7.874;2022-10-16T13:27:30;6.35;;;2.58;;
60675;SDS011;46716;38.014;-7.874;2022-10-16T13:29:34;4.72;;;2.58;;
60675;SDS011;46716;38.014;-7.874;2022-10-16T13:31:37;5.18;;;2.50;;
60675;SDS011;46716;38.014;-7.874;2022-10-16T13:33:39;6.63;;;2.67;;
60675;SDS011;46716;38.014;-7.874;2022-10-16T13:35:49;6.47;;;3.03;;
60675;SDS011;46716;38.014;-7.874;2022-10-16T13:38:14;6.63;;;2.38;;
60675;SDS011;46716;38.014;-7.874;2022-10-16T13:40:23;5.70;;;2.67;;
60675;SDS011;46716;38.014;-7.874;2022-10-16T13:42:33;7.65;;;3.05;;
60675;SDS011;46716;38.014;-7.874;2022-10-16T13:44:47;5.47;;;2.73;;
60675;SDS011;46716;38.014;-7.874;2022-10-16T13:46:58;6.38;;;2.78;;
60675;SDS011;46716;38.014;-7.874;2022-10-16T13:49:04;7.50;;;2.85;;
60675;SDS011;46716;38.014;-7.874;2022-10-16T13:53:14;5.63;;;2.92;;
60675;SDS011;46716;38.014;-7.874;2022-10-16T13:55:17;5.40;;;2.80;;
60675;SDS011;46716;38.014;-7.874;2022-10-16T13:57:21;5.88;;;2.75;;
60675;SDS011;46716;38.014;-7.874;2022-10-16T13:59:27;6.38;;;2.60;;
60675;SDS011;46716;38.014;-7.874;2022-10-16T14:01:49;6.60;;;2.88;;
60675;SDS011;46716;38.014;-7.874;2022-10-16T14:03:59;6.95;;;2.53;;
60675;SDS011;46716;38.014;-7.874;2022-10-16T14:06:15;5.03;;;2.90;;
60675;SDS011;46716;38.014;-7.874;2022-10-16T14:08:22;6.95;;;2.33;;
60675;SDS011;46716;38.014;-7.874;2022-10-16T14:10:27;7.18;;;2.58;;
60675;SDS011;46716;38.014;-7.874;2022-10-16T14:12:30;5.13;;;2.45;;
60675;SDS011;46716;38.014;-7.874;2022-10-16T14:14:44;6.13;;;2.45;;
60675;SDS011;46716;38.014;-7.874;2022-10-16T14:16:52;7.78;;;2.60;;
60675;SDS011;46716;38.014;-7.874;2022-10-16T14:19:03;7.22;;;2.80;;
60675;SDS011;46716;38.014;-7.874;2022-10-16T14:21:14;4.88;;;2.80;;
60675;SDS011;46716;38.014;-7.874;2022-10-16T14:25:30;8.52;;;3.38;;
60675;SDS011;46716;38.014;-7.874;2022-10-16T14:27:33;6.38;;;2.88;;
60675;SDS011;46716;38.014;-7.874;2022-10-16T14:29:38;6.78;;;2.97;;
60675;SDS011;46716;38.014;-7.874;2022-10-16T14:31:39;8.23;;;2.75;;
60675;SDS011;46716;38.014;-7.874;2022-10-16T14:33:41;8.88;;;2.72;;
60675;SDS011;46716;38.014;-7.874;2022-10-16T14:35:44;5.10;;;2.60;;
60675;SDS011;46716;38.014;-7.874;2022-10-16T14:37:53;6.78;;;2.92;;
60675;SDS011;46716;38.014;-7.874;2022-10-16T14:39:56;6.93;;;2.72;;
60675;SDS011;46716;38.014;-7.874;2022-10-16T14:41:59;9.38;;;2.60;;
60675;SDS011;46716;38.014;-7.874;2022-10-16T14:44:02;7.32;;;2.63;;
60675;SDS011;46716;38.014;-7.874;2022-10-16T14:46:18;9.05;;;2.75;;
60675;SDS011;46716;38.014;-7.874;2022-10-16T14:48:27;6.38;;;2.92;;
60675;SDS011;46716;38.014;-7.874;2022-10-16T14:52:31;4.95;;;2.55;;
60675;SDS011;46716;38.014;-7.874;2022-10-16T14:54:33;7.28;;;2.70;;
60675;SDS011;46716;38.014;-7.874;2022-10-16T14:58:51;8.35;;;2.88;;
60675;SDS011;46716;38.014;-7.874;2022-10-16T15:00:55;5.65;;;2.78;;
60675;SDS011;46716;38.014;-7.874;2022-10-16T15:02:56;6.00;;;2.35;;